Time;durP1;ratioP1;P1;durP2;ratioP2;P2;SDS_P1;SDS_P2;PMS_P1;PMS_P2;Temp;Humidity;BMP_temperature;BMP_pressure;BME280_temperature;BME280_humidity;BME280_pressure;Samples;Min_cycle;Max_cycle;Signal;HPM_P1;HPM_P2
2023/05/01 00:00:03;;;;;;;7.53;6.88;;;;;;;;;;5082271;28;20032;-67
2023/05/01 00:02:30;;;;;;;;;;;;;;;;;;5087679;28;20060;-67
2023/05/01 00:04:56;;;;;;;5.70;5.30;;;;;;;;;;5086824;28;20381;-65
2023/05/01 00:07:23;;;;;;;7.57;6.88;;;;;;;;;;5084094;28;20893;-65
2023/05/01 00:09:50;;;;;;;8.52;7.32;;;;;;;;;;5085488;28;20123;-65
2023/05/01 00:12:15;;;;;;;7.82;7.03;;;;;;;;;;5083275;28;20032;-65
2023/05/01 00:14:41;;;;;;;8.30;7.55;;;;;;;;;;5082329;28;20097;-66
2023/05/01 00:17:06;;;;;;;6.47;5.97;;;;;;;;;;5085555;28;20035;-65
2023/05/01 00:19:32;;;;;;;7.72;7.00;;;;;;;;;;5086853;28;20092;-65
2023/05/01 00:21:58;;;;;;;11.32;7.88;;;;;;;;;;5082416;28;20770;-65
2023/05/01 00:24:23;;;;;;;7.40;6.80;;;;;;;;;;5082994;28;20071;-65
2023/05/01 00:26:49;;;;;;;7.70;6.95;;;;;;;;;;5085166;28;20077;-65
2023/05/01 00:29:15;;;;;;;9.55;7.78;;;;;;;;;;5088300;28;20061;-65
2023/05/01 00:31:41;;;;;;;8.05;7.32;;;;;;;;;;5046709;28;20453;-65
2023/05/01 00:34:07;;;;;;;7.18;6.47;;;;;;;;;;5090222;28;20495;-65
2023/05/01 00:36:33;;;;;;;10.20;7.75;;;;;;;;;;5066197;28;20159;-65
2023/05/01 00:38:58;;;;;;;7.60;6.85;;;;;;;;;;5083773;28;20054;-66
2023/05/01 00:41:24;;;;;;;9.25;8.35;;;;;;;;;;5063498;28;20054;-65
2023/05/01 00:43:50;;;;;;;9.57;8.15;;;;;;;;;;5067222;28;20038;-65
2023/05/01 00:46:17;;;;;;;8.68;7.55;;;;;;;;;;5065667;28;20027;-65
2023/05/01 00:48:43;;;;;;;7.85;7.05;;;;;;;;;;5081597;28;20170;-65
2023/05/01 00:51:09;;;;;;;7.35;6.50;;;;;;;;;;5065351;28;20139;-65
2023/05/01 00:53:35;;;;;;;7.40;6.70;;;;;;;;;;5065129;28;20098;-65
2023/05/01 00:56:01;;;;;;;9.02;7.38;;;;;;;;;;5086420;28;20053;-65
2023/05/01 00:58:28;;;;;;;8.13;7.32;;;;;;;;;;5062494;28;20081;-65
2023/05/01 01:00:54;;;;;;;8.18;7.30;;;;;;;;;;5085824;28;20032;-65
2023/05/01 01:03:20;;;;;;;8.00;6.50;;;;;;;;;;5065461;28;20085;-66
2023/05/01 01:05:52;;;;;;;8.13;6.60;;;;;;;;;;5086381;28;20024;-65
2023/05/01 01:08:38;;;;;;;7.05;6.30;;;;;;;;;;5064146;28;20035;-65
2023/05/01 01:11:20;;;;;;;7.28;6.57;;;;;;;;;;5060461;28;20039;-65
2023/05/01 01:13:57;;;;;;;8.65;7.45;;;;;;;;;;5065073;28;20036;-66
2023/05/01 01:16:38;;;;;;;7.80;7.00;;;;;;;;;;5065818;28;20032;-65
2023/05/01 01:19:19;;;;;;;7.47;6.78;;;;;;;;;;5077723;28;20106;-65
2023/05/01 01:21:49;;;;;;;10.57;6.97;;;;;;;;;;5061941;28;20040;-65
2023/05/01 01:24:57;;;;;;;7.47;6.68;;;;;;;;;;5063160;28;20047;-64
2023/05/01 01:27:59;;;;;;;8.05;7.30;;;;;;;;;;5060711;28;20047;-64
2023/05/01 01:30:28;;;;;;;7.38;6.80;;;;;;;;;;5078779;28;20135;-65
2023/05/01 01:33:12;;;;;;;7.93;7.22;;;;;;;;;;5087199;28;20071;-65
2023/05/01 01:35:45;;;;;;;7.05;6.43;;;;;;;;;;5066551;28;20039;-65
2023/05/01 01:38:23;;;;;;;8.85;6.93;;;;;;;;;;5080098;28;20496;-67
2023/05/01 01:41:13;;;;;;;7.28;6.68;;;;;;;;;;5060826;28;20042;-67
2023/05/01 01:43:53;;;;;;;7.30;6.63;;;;;;;;;;5069442;28;20090;-65
2023/05/01 01:46:21;;;;;;;6.88;6.35;;;;;;;;;;5068541;28;20032;-67
2023/05/01 01:48:49;;;;;;;7.18;6.53;;;;;;;;;;5078809;28;20139;-67
2023/05/01 01:51:18;;;;;;;7.78;6.97;;;;;;;;;;5064447;28;20082;-65
2023/05/01 01:53:51;;;;;;;7.43;6.80;;;;;;;;;;5085003;28;20032;-65
2023/05/01 01:56:20;;;;;;;8.63;7.47;;;;;;;;;;5081389;28;20032;-67
2023/05/01 01:58:47;;;;;;;8.15;7.35;;;;;;;;;;5060537;28;20110;-65
2023/05/01 02:01:15;;;;;;;7.45;6.75;;;;;;;;;;5063531;28;20074;-65
2023/05/01 02:03:44;;;;;;;7.15;6.32;;;;;;;;;;5068731;28;20652;-65
2023/05/01 02:06:11;;;;;;;9.45;6.78;;;;;;;;;;5084075;28;20047;-66
2023/05/01 02:08:37;;;;;;;8.50;7.60;;;;;;;;;;5086496;28;20068;-68
2023/05/01 02:11:04;;;;;;;7.78;7.10;;;;;;;;;;5063872;28;20074;-66
2023/05/01 02:13:31;;;;;;;6.88;6.28;;;;;;;;;;5063828;28;20086;-65
2023/05/01 02:16:02;;;;;;;8.10;7.40;;;;;;;;;;5065983;28;20035;-65
2023/05/01 02:18:30;;;;;;;9.07;7.47;;;;;;;;;;5060473;28;20038;-65
2023/05/01 02:20:58;;;;;;;11.80;7.68;;;;;;;;;;5063804;28;20036;-65
2023/05/01 02:23:26;;;;;;;9.05;7.35;;;;;;;;;;5078089;28;20040;-66
2023/05/01 02:25:53;;;;;;;7.47;6.78;;;;;;;;;;5051157;28;20045;-65
2023/05/01 02:28:23;;;;;;;7.45;6.85;;;;;;;;;;5057867;28;20690;-65
2023/05/01 02:30:48;;;;;;;8.25;7.45;;;;;;;;;;5083796;28;20031;-66
2023/05/01 02:33:14;;;;;;;8.55;7.57;;;;;;;;;;5068812;28;20655;-65
2023/05/01 02:35:42;;;;;;;8.05;7.13;;;;;;;;;;5067859;28;20036;-65
2023/05/01 02:38:11;;;;;;;7.47;6.78;;;;;;;;;;5066355;28;20028;-65
2023/05/01 02:40:38;;;;;;;7.30;6.60;;;;;;;;;;5065906;28;20031;-65
2023/05/01 02:43:07;;;;;;;8.77;7.22;;;;;;;;;;5084808;28;20035;-65
2023/05/01 02:45:37;;;;;;;7.85;7.05;;;;;;;;;;5070624;28;20055;-66
2023/05/01 02:48:05;;;;;;;7.28;6.63;;;;;;;;;;5063586;28;20028;-65
2023/05/01 02:50:33;;;;;;;7.63;6.93;;;;;;;;;;5066383;28;20031;-65
2023/05/01 02:53:00;;;;;;;7.38;6.63;;;;;;;;;;5064657;28;20077;-66
2023/05/01 02:55:41;;;;;;;7.53;6.88;;;;;;;;;;5050443;28;20064;-65
2023/05/01 02:58:07;;;;;;;7.60;6.82;;;;;;;;;;5084151;28;20020;-66
2023/05/01 03:00:34;;;;;;;6.82;5.82;;;;;;;;;;5084153;28;20035;-65
2023/05/01 03:03:00;;;;;;;7.70;6.45;;;;;;;;;;5064670;28;20040;-65
2023/05/01 03:05:25;;;;;;;8.80;6.82;;;;;;;;;;5088888;28;20648;-65
2023/05/01 03:07:51;;;;;;;8.52;6.32;;;;;;;;;;5084270;28;20053;-65
2023/05/01 03:10:17;;;;;;;6.95;6.35;;;;;;;;;;5065480;28;20032;-65
2023/05/01 03:12:43;;;;;;;7.25;6.55;;;;;;;;;;5066571;28;20032;-65
2023/05/01 03:15:11;;;;;;;7.85;6.72;;;;;;;;;;5064568;28;20100;-65
2023/05/01 03:17:36;;;;;;;7.35;6.60;;;;;;;;;;5089521;28;20032;-65
2023/05/01 03:20:05;;;;;;;8.52;7.50;;;;;;;;;;5066991;28;20031;-66
2023/05/01 03:22:31;;;;;;;7.57;6.60;;;;;;;;;;5065262;28;20502;-65
2023/05/01 03:24:58;;;;;;;7.60;6.80;;;;;;;;;;5069945;28;20036;-65
2023/05/01 03:27:23;;;;;;;7.00;6.30;;;;;;;;;;5086230;28;20028;-65
2023/05/01 03:29:51;;;;;;;8.00;6.68;;;;;;;;;;5065225;28;20048;-65
2023/05/01 03:32:17;;;;;;;6.97;6.38;;;;;;;;;;5081855;28;20032;-65
2023/05/01 03:34:44;;;;;;;7.60;6.90;;;;;;;;;;5067058;28;20039;-65
2023/05/01 03:37:11;;;;;;;8.30;7.35;;;;;;;;;;5071832;28;20031;-65
2023/05/01 03:39:37;;;;;;;7.53;6.82;;;;;;;;;;5064411;28;20032;-65
2023/05/01 03:42:20;;;;;;;8.25;7.45;;;;;;;;;;5086596;28;20490;-65
2023/05/01 03:44:48;;;;;;;6.30;5.65;;;;;;;;;;5072950;28;20067;-65
2023/05/01 03:47:14;;;;;;;8.88;7.00;;;;;;;;;;5066490;28;20059;-65
2023/05/01 03:49:42;;;;;;;7.43;6.72;;;;;;;;;;5066011;28;20040;-65
2023/05/01 03:52:10;;;;;;;7.07;6.38;;;;;;;;;;5067917;28;20043;-66
2023/05/01 03:54:37;;;;;;;6.03;5.20;;;;;;;;;;5079804;28;20089;-67
2023/05/01 03:57:26;;;;;;;7.95;6.70;;;;;;;;;;5062994;28;20686;-66
2023/05/01 03:59:53;;;;;;;8.57;7.70;;;;;;;;;;5088706;28;20073;-67
2023/05/01 04:02:19;;;;;;;7.90;6.63;;;;;;;;;;5065937;28;20036;-67
2023/05/01 04:04:45;;;;;;;8.23;7.13;;;;;;;;;;5067544;28;20142;-67
2023/05/01 04:07:12;;;;;;;15.35;7.03;;;;;;;;;;5068313;28;20136;-67
2023/05/01 04:09:38;;;;;;;7.53;6.80;;;;;;;;;;5065717;28;20036;-67
2023/05/01 04:12:05;;;;;;;6.13;5.53;;;;;;;;;;5064022;28;20036;-67
2023/05/01 04:14:30;;;;;;;7.10;6.40;;;;;;;;;;5069499;28;20437;-67
2023/05/01 04:16:57;;;;;;;7.03;5.82;;;;;;;;;;5075126;28;20040;-67
2023/05/01 04:19:23;;;;;;;7.45;6.55;;;;;;;;;;5066905;28;20032;-67
2023/05/01 04:21:55;;;;;;;12.32;9.38;;;;;;;;;;5064853;28;20043;-67
2023/05/01 04:24:21;;;;;;;20.25;11.55;;;;;;;;;;5053425;28;20042;-66
2023/05/01 04:26:46;;;;;;;14.75;8.48;;;;;;;;;;5074217;28;20036;-67
2023/05/01 04:29:13;;;;;;;13.02;9.10;;;;;;;;;;5057351;28;20039;-67
2023/05/01 04:31:40;;;;;;;8.55;7.40;;;;;;;;;;5065370;28;20089;-66
2023/05/01 04:34:06;;;;;;;13.25;7.30;;;;;;;;;;5089663;28;20031;-67
2023/05/01 04:36:31;;;;;;;7.20;6.47;;;;;;;;;;5062047;28;20028;-67
2023/05/01 04:38:58;;;;;;;7.90;7.10;;;;;;;;;;5061033;28;20104;-67
2023/05/01 04:41:24;;;;;;;7.53;6.80;;;;;;;;;;5048933;28;20492;-67
2023/05/01 04:43:49;;;;;;;7.43;6.70;;;;;;;;;;5065239;28;20514;-67
2023/05/01 04:46:17;;;;;;;7.13;6.43;;;;;;;;;;5062392;28;20035;-67
2023/05/01 04:48:43;;;;;;;6.55;5.90;;;;;;;;;;5047831;28;20036;-67
2023/05/01 04:51:08;;;;;;;7.75;6.55;;;;;;;;;;5066455;28;20032;-67
2023/05/01 04:53:35;;;;;;;7.70;6.95;;;;;;;;;;5066997;28;20947;-67
2023/05/01 04:56:02;;;;;;;10.43;6.97;;;;;;;;;;5063876;28;20059;-67
2023/05/01 04:58:29;;;;;;;6.88;6.28;;;;;;;;;;5066303;28;20040;-67
2023/05/01 05:01:00;;;;;;;6.70;6.10;;;;;;;;;;5066395;28;20024;-67
2023/05/01 05:03:26;;;;;;;7.00;6.25;;;;;;;;;;5064850;28;20258;-67
2023/05/01 05:05:51;;;;;;;6.72;6.07;;;;;;;;;;5066014;28;20077;-67
2023/05/01 05:08:17;;;;;;;6.82;6.03;;;;;;;;;;5068842;28;20063;-68
2023/05/01 05:10:57;;;;;;;7.55;6.85;;;;;;;;;;5084418;28;20046;-68
2023/05/01 05:13:36;;;;;;;8.02;7.22;;;;;;;;;;5082878;28;20043;-68
2023/05/01 05:16:08;;;;;;;7.97;6.60;;;;;;;;;;5066261;28;20062;-68
2023/05/01 05:18:34;;;;;;;6.65;6.00;;;;;;;;;;5082399;28;20056;-68
2023/05/01 05:21:04;;;;;;;12.77;7.70;;;;;;;;;;5064268;28;20094;-68
2023/05/01 05:23:30;;;;;;;8.15;7.30;;;;;;;;;;5063721;28;20176;-68
2023/05/01 05:25:57;;;;;;;6.82;5.97;;;;;;;;;;5087370;28;20488;-68
2023/05/01 05:28:23;;;;;;;7.60;5.45;;;;;;;;;;5063402;28;20897;-68
2023/05/01 05:30:48;;;;;;;7.80;7.00;;;;;;;;;;5064181;28;20028;-68
2023/05/01 05:33:17;;;;;;;;;;;;;;;;;;5062703;28;20040;-68
2023/05/01 05:35:44;;;;;;;6.70;6.10;;;;;;;;;;5065668;28;20318;-68
2023/05/01 05:38:09;;;;;;;7.10;6.50;;;;;;;;;;5063684;28;20089;-68
2023/05/01 05:40:37;;;;;;;10.27;6.68;;;;;;;;;;5066692;28;20035;-67
2023/05/01 05:43:03;;;;;;;7.10;6.40;;;;;;;;;;5063817;28;20038;-68
2023/05/01 05:45:33;;;;;;;6.43;5.80;;;;;;;;;;5062818;28;20138;-68
2023/05/01 05:47:59;;;;;;;6.68;6.07;;;;;;;;;;5067871;28;20630;-67
2023/05/01 05:50:26;;;;;;;6.75;6.18;;;;;;;;;;5062865;28;20031;-67
2023/05/01 05:52:52;;;;;;;8.52;6.43;;;;;;;;;;5063553;28;20118;-67
2023/05/01 05:55:17;;;;;;;6.70;6.10;;;;;;;;;;5068347;28;21004;-67
2023/05/01 05:57:56;;;;;;;7.22;6.53;;;;;;;;;;5061837;28;20169;-67
2023/05/01 06:00:22;;;;;;;10.68;5.80;;;;;;;;;;5063016;28;20115;-67
2023/05/01 06:02:49;;;;;;;6.55;6.05;;;;;;;;;;5063378;28;20692;-67
2023/05/01 06:05:16;;;;;;;6.80;6.20;;;;;;;;;;5069033;28;20500;-68
2023/05/01 06:07:42;;;;;;;5.82;5.38;;;;;;;;;;5068124;28;20050;-67
2023/05/01 06:10:08;;;;;;;7.05;6.45;;;;;;;;;;5066902;28;20103;-67
2023/05/01 06:12:34;;;;;;;6.95;6.35;;;;;;;;;;5067614;28;20043;-67
2023/05/01 06:15:00;;;;;;;6.05;5.57;;;;;;;;;;5052540;28;20031;-67
2023/05/01 06:17:26;;;;;;;6.47;5.90;;;;;;;;;;5067117;28;20028;-66
2023/05/01 06:19:52;;;;;;;7.43;6.72;;;;;;;;;;5091177;28;20047;-66
2023/05/01 06:22:18;;;;;;;6.18;5.63;;;;;;;;;;5072858;28;20114;-68
2023/05/01 06:24:58;;;;;;;5.97;5.57;;;;;;;;;;5070473;28;20055;-67
2023/05/01 06:27:25;;;;;;;6.85;6.15;;;;;;;;;;5072505;28;20042;-67
2023/05/01 06:29:51;;;;;;;6.22;5.82;;;;;;;;;;5067087;28;20419;-67
2023/05/01 06:32:17;;;;;;;6.53;5.80;;;;;;;;;;5067991;28;20032;-65
2023/05/01 06:34:43;;;;;;;5.85;5.15;;;;;;;;;;5068789;28;20151;-67
2023/05/01 06:37:09;;;;;;;6.38;5.88;;;;;;;;;;5072423;28;20142;-67
2023/05/01 06:39:35;;;;;;;6.95;6.45;;;;;;;;;;5067293;28;20056;-67
2023/05/01 06:42:02;;;;;;;6.53;6.03;;;;;;;;;;5068254;28;20513;-67
2023/05/01 06:44:37;;;;;;;6.43;5.95;;;;;;;;;;5057708;28;20043;-66
2023/05/01 06:47:03;;;;;;;6.93;6.38;;;;;;;;;;5075675;28;20038;-67
2023/05/01 06:49:28;;;;;;;6.60;6.00;;;;;;;;;;5049321;28;20036;-67
2023/05/01 06:51:54;;;;;;;6.30;5.70;;;;;;;;;;5065133;28;20089;-66
2023/05/01 06:54:19;;;;;;;6.88;6.35;;;;;;;;;;5065014;28;20090;-66
2023/05/01 06:56:45;;;;;;;6.28;5.78;;;;;;;;;;5068186;28;20070;-67
2023/05/01 06:59:11;;;;;;;7.50;6.80;;;;;;;;;;5068172;28;20051;-66
2023/05/01 07:01:37;;;;;;;6.03;5.45;;;;;;;;;;5065425;28;20613;-66
2023/05/01 07:04:02;;;;;;;6.90;6.30;;;;;;;;;;5090256;28;20044;-66
2023/05/01 07:06:28;;;;;;;7.88;6.18;;;;;;;;;;5088922;28;20636;-66
2023/05/01 07:08:54;;;;;;;7.07;6.47;;;;;;;;;;5084950;28;20067;-67
2023/05/01 07:11:25;;;;;;;8.27;7.40;;;;;;;;;;5085613;28;20032;-66
2023/05/01 07:13:53;;;;;;;6.53;6.03;;;;;;;;;;5089480;28;20024;-67
2023/05/01 07:16:19;;;;;;;7.07;6.47;;;;;;;;;;5087560;28;20032;-66
2023/05/01 07:18:45;;;;;;;7.43;6.72;;;;;;;;;;5083783;28;20399;-66
2023/05/01 07:21:11;;;;;;;6.68;6.03;;;;;;;;;;5088349;28;20584;-67
2023/05/01 07:23:38;;;;;;;10.52;7.57;;;;;;;;;;5088901;28;20508;-66
2023/05/01 07:26:04;;;;;;;7.88;7.18;;;;;;;;;;5065200;28;20493;-66
2023/05/01 07:28:30;;;;;;;8.05;7.15;;;;;;;;;;5080289;28;20036;-66
2023/05/01 07:30:56;;;;;;;14.27;7.05;;;;;;;;;;5081951;28;20076;-66
2023/05/01 07:33:24;;;;;;;8.50;7.60;;;;;;;;;;5081385;28;20040;-66
2023/05/01 07:35:50;;;;;;;7.97;7.15;;;;;;;;;;5082412;28;20135;-67
2023/05/01 07:38:16;;;;;;;8.30;7.50;;;;;;;;;;5064315;28;20135;-66
2023/05/01 07:40:42;;;;;;;7.13;6.53;;;;;;;;;;5079587;28;20077;-66
2023/05/01 07:43:10;;;;;;;6.68;6.07;;;;;;;;;;5083013;28;20027;-66
2023/05/01 07:45:37;;;;;;;7.15;6.45;;;;;;;;;;5081631;28;20281;-66
2023/05/01 07:48:03;;;;;;;7.03;6.43;;;;;;;;;;5081995;28;20043;-66
2023/05/01 07:50:29;;;;;;;6.75;6.20;;;;;;;;;;5079392;28;20032;-66
2023/05/01 07:52:56;;;;;;;8.35;7.55;;;;;;;;;;5081704;28;20035;-67
2023/05/01 07:55:22;;;;;;;13.60;11.10;;;;;;;;;;5082395;28;20155;-66
2023/05/01 07:57:49;;;;;;;7.57;6.93;;;;;;;;;;5082433;28;20684;-66
2023/05/01 08:00:15;;;;;;;9.13;8.32;;;;;;;;;;5063800;28;20075;-66
2023/05/01 08:02:41;;;;;;;7.95;7.25;;;;;;;;;;5081110;28;20406;-66
2023/05/01 08:05:06;;;;;;;8.50;7.70;;;;;;;;;;5082600;28;20043;-66
2023/05/01 08:07:32;;;;;;;7.97;7.25;;;;;;;;;;5080668;28;20032;-66
2023/05/01 08:09:59;;;;;;;8.25;7.55;;;;;;;;;;5081710;28;20541;-66
2023/05/01 08:12:25;;;;;;;8.57;7.68;;;;;;;;;;5082462;28;20097;-66
2023/05/01 08:14:52;;;;;;;11.25;8.23;;;;;;;;;;5082768;28;20087;-66
2023/05/01 08:17:17;;;;;;;15.40;9.15;;;;;;;;;;5080881;28;20438;-67
2023/05/01 08:19:44;;;;;;;16.48;11.02;;;;;;;;;;5082902;28;20023;-66
2023/05/01 08:22:10;;;;;;;17.50;10.88;;;;;;;;;;5079993;28;20101;-67
2023/05/01 08:24:37;;;;;;;19.17;12.52;;;;;;;;;;5081149;28;20168;-66
2023/05/01 08:27:03;;;;;;;16.55;13.23;;;;;;;;;;5061006;28;20036;-66
2023/05/01 08:29:28;;;;;;;25.75;16.20;;;;;;;;;;5082752;28;20058;-67
2023/05/01 08:31:55;;;;;;;17.13;10.52;;;;;;;;;;5081668;28;20035;-67
2023/05/01 08:34:22;;;;;;;15.40;10.52;;;;;;;;;;5081352;28;20044;-67
2023/05/01 08:36:48;;;;;;;10.68;8.98;;;;;;;;;;5077884;28;20074;-67
2023/05/01 08:39:14;;;;;;;16.88;13.63;;;;;;;;;;5081343;28;20488;-67
2023/05/01 08:41:44;;;;;;;10.27;8.85;;;;;;;;;;5081272;28;20035;-67
2023/05/01 08:44:11;;;;;;;8.32;7.63;;;;;;;;;;5081312;28;20077;-66
2023/05/01 08:46:45;;;;;;;6.95;5.93;;;;;;;;;;5084870;28;20494;-66
2023/05/01 08:49:16;;;;;;;6.15;5.70;;;;;;;;;;5078678;28;20032;-67
2023/05/01 08:51:48;;;;;;;7.28;6.68;;;;;;;;;;5084610;28;20079;-67
2023/05/01 08:54:15;;;;;;;7.70;6.85;;;;;;;;;;5083520;28;20081;-67
2023/05/01 08:56:45;;;;;;;7.47;6.78;;;;;;;;;;5084655;28;20046;-67
2023/05/01 08:59:13;;;;;;;7.97;7.28;;;;;;;;;;5089530;28;20478;-67
2023/05/01 09:01:40;;;;;;;8.38;7.57;;;;;;;;;;5080689;28;20040;-67
2023/05/01 09:04:08;;;;;;;9.70;8.70;;;;;;;;;;5084712;28;20122;-67
2023/05/01 09:06:34;;;;;;;19.40;14.40;;;;;;;;;;5085751;28;20043;-67
2023/05/01 09:09:00;;;;;;;6.38;5.28;;;;;;;;;;5087959;28;20036;-67
2023/05/01 09:11:26;;;;;;;8.52;7.10;;;;;;;;;;5082467;28;20064;-67
2023/05/01 09:13:52;;;;;;;8.25;6.40;;;;;;;;;;5087526;28;20031;-67
2023/05/01 09:16:19;;;;;;;7.32;6.63;;;;;;;;;;5082644;28;20046;-68
2023/05/01 09:18:45;;;;;;;6.93;6.32;;;;;;;;;;5061694;28;20032;-68
2023/05/01 09:21:12;;;;;;;7.03;6.30;;;;;;;;;;5084035;28;20446;-67
2023/05/01 09:23:39;;;;;;;7.72;7.03;;;;;;;;;;5082452;28;20032;-67
2023/05/01 09:26:08;;;;;;;7.25;6.55;;;;;;;;;;5085950;28;20050;-68
2023/05/01 09:28:45;;;;;;;7.07;6.40;;;;;;;;;;5063685;28;20139;-67
2023/05/01 09:31:21;;;;;;;7.15;6.53;;;;;;;;;;5085100;28;20040;-67
2023/05/01 09:33:58;;;;;;;6.97;6.38;;;;;;;;;;5080486;28;20036;-67
2023/05/01 09:36:26;;;;;;;7.07;6.38;;;;;;;;;;5082505;28;20079;-68
2023/05/01 09:38:53;;;;;;;7.00;6.47;;;;;;;;;;5077764;28;20039;-67
2023/05/01 09:41:21;;;;;;;6.78;6.18;;;;;;;;;;5078066;28;20030;-68
2023/05/01 09:43:50;;;;;;;7.82;6.65;;;;;;;;;;5077299;28;20597;-68
2023/05/01 09:46:16;;;;;;;6.68;6.00;;;;;;;;;;5061010;28;20493;-67
2023/05/01 09:48:54;;;;;;;6.82;6.22;;;;;;;;;;5078916;28;20728;-67
2023/05/01 09:51:29;;;;;;;6.72;6.13;;;;;;;;;;5079945;28;20120;-68
2023/05/01 09:54:01;;;;;;;7.53;6.72;;;;;;;;;;5078911;28;20028;-68
2023/05/01 09:56:29;;;;;;;6.68;6.07;;;;;;;;;;5080513;28;20550;-68
2023/05/01 09:58:56;;;;;;;6.65;5.90;;;;;;;;;;5077004;28;20168;-68
2023/05/01 10:01:43;;;;;;;6.50;5.90;;;;;;;;;;5080188;28;20119;-68
2023/05/01 10:04:09;;;;;;;6.53;5.90;;;;;;;;;;5081074;28;20044;-66
2023/05/01 10:06:35;;;;;;;6.85;6.18;;;;;;;;;;5082993;28;20036;-67
2023/05/01 10:09:02;;;;;;;6.63;6.03;;;;;;;;;;5078881;28;20039;-67
2023/05/01 10:11:28;;;;;;;6.72;6.13;;;;;;;;;;5087670;28;20596;-67
2023/05/01 10:14:09;;;;;;;6.47;5.88;;;;;;;;;;5079622;28;20043;-67
2023/05/01 10:16:37;;;;;;;6.63;5.38;;;;;;;;;;5075567;28;20718;-67
2023/05/01 10:19:04;;;;;;;7.03;6.25;;;;;;;;;;5084037;28;20039;-67
2023/05/01 10:21:32;;;;;;;5.45;4.95;;;;;;;;;;5033724;28;20037;-67
2023/05/01 10:23:58;;;;;;;7.60;5.90;;;;;;;;;;5031756;28;20040;-67
2023/05/01 10:26:25;;;;;;;8.68;6.30;;;;;;;;;;5032636;28;20036;-67
2023/05/01 10:29:12;;;;;;;5.95;5.40;;;;;;;;;;5035298;28;20614;-66
2023/05/01 10:31:41;;;;;;;7.50;5.90;;;;;;;;;;5030855;28;20202;-67
2023/05/01 10:34:07;;;;;;;6.47;5.88;;;;;;;;;;5031386;28;20046;-67
2023/05/01 10:36:41;;;;;;;6.85;6.15;;;;;;;;;;5034323;28;20112;-67
2023/05/01 10:39:33;;;;;;;6.40;5.82;;;;;;;;;;5033094;28;20061;-67
2023/05/01 10:42:04;;;;;;;6.50;5.90;;;;;;;;;;5033815;28;20030;-67
2023/05/01 10:44:30;;;;;;;6.57;5.97;;;;;;;;;;5027924;28;20119;-67
2023/05/01 10:46:56;;;;;;;6.68;5.97;;;;;;;;;;5018538;28;20469;-67
2023/05/01 10:49:22;;;;;;;5.90;5.40;;;;;;;;;;5035842;28;20134;-67
2023/05/01 10:51:59;;;;;;;6.68;6.07;;;;;;;;;;5034178;28;20039;-68
2023/05/01 10:54:29;;;;;;;7.25;6.55;;;;;;;;;;5038376;28;20044;-66
2023/05/01 10:56:57;;;;;;;6.53;6.03;;;;;;;;;;5038869;28;20048;-68
2023/05/01 10:59:23;;;;;;;6.67;6.00;;;;;;;;;;5038967;28;20403;-67
2023/05/01 11:01:50;;;;;;;6.63;6.03;;;;;;;;;;5033528;28;20078;-67
2023/05/01 11:04:20;;;;;;;8.77;6.57;;;;;;;;;;5036253;28;20247;-67
2023/05/01 11:07:04;;;;;;;7.47;6.20;;;;;;;;;;5037183;28;20045;-67
2023/05/01 11:09:47;;;;;;;6.68;6.15;;;;;;;;;;5017220;28;20041;-67
2023/05/01 11:12:34;;;;;;;8.32;6.43;;;;;;;;;;5034024;28;20048;-67
2023/05/01 11:15:02;;;;;;;7.32;6.32;;;;;;;;;;5027474;28;20069;-67
2023/05/01 11:17:44;;;;;;;7.50;6.80;;;;;;;;;;5039126;28;20048;-68
2023/05/01 11:20:12;;;;;;;6.60;6.00;;;;;;;;;;5019520;28;20038;-67
2023/05/01 11:22:43;;;;;;;7.05;6.35;;;;;;;;;;5039433;28;20040;-67
2023/05/01 11:25:29;;;;;;;6.80;6.10;;;;;;;;;;5021054;28;20033;-67
2023/05/01 11:27:57;;;;;;;9.02;6.63;;;;;;;;;;5032996;28;20086;-66
2023/05/01 11:30:23;;;;;;;7.90;6.75;;;;;;;;;;5033802;28;20037;-66
2023/05/01 11:32:50;;;;;;;6.55;5.95;;;;;;;;;;5035803;28;20044;-68
2023/05/01 11:35:25;;;;;;;6.20;5.60;;;;;;;;;;5037376;28;20033;-68
2023/05/01 11:37:50;;;;;;;7.97;6.40;;;;;;;;;;5030057;28;20041;-68
2023/05/01 11:40:24;;;;;;;7.38;6.78;;;;;;;;;;5036449;28;20051;-67
2023/05/01 11:42:50;;;;;;;7.00;5.95;;;;;;;;;;5036994;28;20087;-66
2023/05/01 11:45:18;;;;;;;7.30;6.60;;;;;;;;;;5031127;28;20558;-66
2023/05/01 11:47:44;;;;;;;7.25;6.55;;;;;;;;;;5036670;28;20037;-67
2023/05/01 11:50:10;;;;;;;8.88;6.85;;;;;;;;;;5034828;28;20041;-67
2023/05/01 11:52:51;;;;;;;19.58;10.50;;;;;;;;;;5031216;28;20112;-67
2023/05/01 11:55:17;;;;;;;8.20;6.03;;;;;;;;;;5031113;28;20068;-67
2023/05/01 11:57:51;;;;;;;5.68;5.18;;;;;;;;;;5036467;28;20128;-67
2023/05/01 12:00:29;;;;;;;6.90;6.28;;;;;;;;;;5035935;28;20037;-67
2023/05/01 12:03:04;;;;;;;7.22;6.63;;;;;;;;;;5037709;28;20138;-67
2023/05/01 12:05:31;;;;;;;9.07;5.70;;;;;;;;;;5036138;28;20107;-66
2023/05/01 12:08:17;;;;;;;6.97;6.28;;;;;;;;;;5037418;28;20065;-67
2023/05/01 12:10:44;;;;;;;6.80;6.20;;;;;;;;;;5031755;28;20032;-67
2023/05/01 12:13:12;;;;;;;6.28;5.78;;;;;;;;;;5034582;28;20036;-67
2023/05/01 12:15:43;;;;;;;6.70;6.10;;;;;;;;;;5037972;28;20028;-67
2023/05/01 12:18:11;;;;;;;6.60;5.90;;;;;;;;;;5036945;28;20033;-67
2023/05/01 12:20:42;;;;;;;6.45;5.82;;;;;;;;;;5032039;28;20037;-67
2023/05/01 12:23:10;;;;;;;8.27;6.10;;;;;;;;;;5019073;28;20048;-69
2023/05/01 12:25:38;;;;;;;7.00;6.20;;;;;;;;;;5017934;28;20114;-66
2023/05/01 12:28:13;;;;;;;6.82;6.22;;;;;;;;;;5034940;28;20807;-67
2023/05/01 12:30:40;;;;;;;7.70;6.43;;;;;;;;;;5033167;28;20033;-67
2023/05/01 12:33:14;;;;;;;6.60;6.00;;;;;;;;;;5028738;28;20033;-67
2023/05/01 12:35:42;;;;;;;6.63;6.03;;;;;;;;;;5035280;28;20041;-66
2023/05/01 12:38:14;;;;;;;7.28;6.60;;;;;;;;;;5032322;28;20059;-67
2023/05/01 12:40:55;;;;;;;7.18;6.53;;;;;;;;;;5034126;28;20044;-66
2023/05/01 12:43:34;;;;;;;6.60;5.90;;;;;;;;;;5033311;28;20047;-67
2023/05/01 12:46:02;;;;;;;6.63;5.82;;;;;;;;;;5033924;28;20025;-67
2023/05/01 12:48:28;;;;;;;7.38;6.68;;;;;;;;;;5031597;28;20029;-67
2023/05/01 12:50:54;;;;;;;6.63;6.07;;;;;;;;;;5038036;28;20497;-67
2023/05/01 12:53:24;;;;;;;8.20;6.25;;;;;;;;;;5032946;28;20032;-67
2023/05/01 12:55:55;;;;;;;7.45;6.68;;;;;;;;;;5032643;28;20033;-68
2023/05/01 12:58:21;;;;;;;8.55;6.90;;;;;;;;;;5038530;28;20403;-67
2023/05/01 13:00:51;;;;;;;7.05;6.35;;;;;;;;;;5035521;28;20044;-68
2023/05/01 13:03:25;;;;;;;7.32;6.63;;;;;;;;;;5035933;28;20040;-68
2023/05/01 13:05:54;;;;;;;6.85;6.25;;;;;;;;;;5035107;28;20106;-67
2023/05/01 13:08:30;;;;;;;8.55;6.82;;;;;;;;;;5033018;28;20124;-66
2023/05/01 13:10:58;;;;;;;7.32;6.47;;;;;;;;;;5018966;28;20028;-67
2023/05/01 13:13:25;;;;;;;8.02;7.25;;;;;;;;;;5014229;28;20045;-66
2023/05/01 13:15:51;;;;;;;7.05;6.40;;;;;;;;;;5033799;28;20064;-67
2023/05/01 13:18:17;;;;;;;7.20;6.57;;;;;;;;;;5036142;28;20092;-67
2023/05/01 13:20:42;;;;;;;7.55;6.85;;;;;;;;;;5033206;28;20037;-67
2023/05/01 13:23:09;;;;;;;6.47;5.40;;;;;;;;;;5032551;28;20033;-67
2023/05/01 13:25:36;;;;;;;6.05;5.55;;;;;;;;;;5031003;28;20120;-66
2023/05/01 13:28:01;;;;;;;7.07;6.30;;;;;;;;;;5030061;28;20388;-67
2023/05/01 13:30:31;;;;;;;7.82;5.85;;;;;;;;;;5034101;28;20032;-67
2023/05/01 13:32:57;;;;;;;6.20;5.70;;;;;;;;;;5036327;28;20037;-67
2023/05/01 13:35:24;;;;;;;6.68;6.05;;;;;;;;;;5016615;28;20046;-67
2023/05/01 13:37:50;;;;;;;7.18;5.90;;;;;;;;;;5039171;28;20042;-67
2023/05/01 13:40:17;;;;;;;6.35;5.75;;;;;;;;;;5038314;28;20044;-66
2023/05/01 13:42:43;;;;;;;7.32;6.65;;;;;;;;;;5034118;28;20076;-67
2023/05/01 13:45:10;;;;;;;9.30;6.95;;;;;;;;;;5033470;28;20146;-67
2023/05/01 13:47:39;;;;;;;8.25;7.45;;;;;;;;;;5035807;28;20093;-67
2023/05/01 13:50:08;;;;;;;8.10;7.30;;;;;;;;;;5038893;28;20025;-67
2023/05/01 13:52:39;;;;;;;;;;;;;;;;;;5031342;28;20052;-67
2023/05/01 13:55:05;;;;;;;11.50;8.15;;;;;;;;;;5029051;28;19917;-66
2023/05/01 13:57:31;;;;;;;9.48;8.05;;;;;;;;;;4996614;28;20082;-66
2023/05/01 13:59:57;;;;;;;9.80;8.80;;;;;;;;;;5032003;28;20450;-65
2023/05/01 14:02:27;;;;;;;9.32;8.45;;;;;;;;;;5024012;28;20052;-65
2023/05/01 14:04:54;;;;;;;9.93;8.50;;;;;;;;;;5028672;28;20036;-63
2023/05/01 14:07:21;;;;;;;10.70;9.57;;;;;;;;;;5031192;28;20028;-64
2023/05/01 14:09:54;;;;;;;12.75;9.90;;;;;;;;;;5030781;28;20056;-63
2023/05/01 14:12:27;;;;;;;10.75;9.73;;;;;;;;;;5030807;28;20116;-64
2023/05/01 14:14:53;;;;;;;11.18;9.68;;;;;;;;;;5035051;28;20582;-64
2023/05/01 14:17:18;;;;;;;10.73;9.60;;;;;;;;;;5031086;28;20131;-64
2023/05/01 14:19:44;;;;;;;15.38;11.43;;;;;;;;;;5030660;28;20538;-64
2023/05/01 14:22:10;;;;;;;18.30;11.38;;;;;;;;;;5030355;28;20811;-64
2023/05/01 14:24:39;;;;;;;11.38;10.00;;;;;;;;;;5032441;28;20033;-65
2023/05/01 14:27:08;;;;;;;10.98;9.55;;;;;;;;;;5040224;28;20041;-64
2023/05/01 14:29:35;;;;;;;10.27;9.20;;;;;;;;;;5033511;28;20037;-64
2023/05/01 14:32:04;;;;;;;10.38;9.38;;;;;;;;;;5035128;28;20492;-64
2023/05/01 14:34:30;;;;;;;11.55;8.95;;;;;;;;;;5039415;28;20035;-65
2023/05/01 14:36:57;;;;;;;9.38;8.38;;;;;;;;;;5034869;28;20859;-65
2023/05/01 14:39:23;;;;;;;13.88;11.65;;;;;;;;;;5030866;28;20665;-65
2023/05/01 14:41:49;;;;;;;11.85;10.07;;;;;;;;;;5039178;28;20051;-65
2023/05/01 14:44:17;;;;;;;10.07;8.95;;;;;;;;;;5037658;28;20034;-67
2023/05/01 14:46:45;;;;;;;14.05;10.35;;;;;;;;;;5035701;28;20067;-67
2023/05/01 14:49:21;;;;;;;10.88;9.77;;;;;;;;;;5033867;28;20037;-66